createdAt,value
2023-01-22T10:43:20.079Z,23.27
2023-01-22T10:45:59.791Z,26.70
2023-01-22T10:48:30.776Z,23.15
2023-01-22T10:51:18.140Z,20.20
2023-01-22T10:53:58.515Z,29.60
2023-01-22T10:56:36.358Z,25.35
2023-01-22T10:59:23.174Z,23.75
2023-01-22T11:01:59.630Z,27.17
2023-01-22T11:04:29.100Z,21.92
2023-01-22T11:06:59.369Z,24.13
2023-01-22T11:10:13.103Z,24.55
2023-01-22T11:12:52.861Z,24.60
2023-01-22T11:15:29.578Z,24.25
2023-01-22T11:18:00.844Z,28.48
2023-01-22T11:20:48.784Z,25.77
2023-01-22T11:23:42.054Z,24.20
2023-01-22T11:26:21.355Z,25.85
2023-01-22T11:28:55.720Z,23.88
2023-01-22T11:31:58.120Z,27.17
2023-01-22T11:34:43.955Z,33.33
2023-01-22T11:37:14.163Z,25.60
2023-01-22T11:39:51.776Z,26.13
2023-01-22T11:42:29.722Z,26.67
2023-01-22T11:45:11.512Z,28.25
2023-01-22T11:47:51.241Z,23.30
2023-01-22T11:51:07.311Z,27.85
2023-01-22T11:54:05.356Z,32.40
2023-01-22T11:56:54.475Z,25.15
2023-01-22T11:59:52.257Z,21.88
2023-01-22T12:02:50.318Z,24.55
2023-01-22T12:05:31.158Z,23.90
2023-01-22T12:08:28.182Z,24.75
2023-01-22T12:11:29.156Z,23.50
2023-01-22T12:14:28.396Z,14.32
2023-01-22T12:17:14.343Z,21.73
2023-01-22T12:19:53.324Z,14.27
2023-01-22T12:22:43.583Z,18.70
2023-01-22T12:25:32.443Z,15.13
2023-01-22T12:28:09.111Z,17.88
2023-01-22T12:30:45.123Z,16.73
2023-01-22T12:35:40.659Z,20.40
2023-01-22T12:38:12.410Z,15.80
2023-01-22T12:41:02.567Z,14.32
2023-01-22T12:43:51.117Z,17.38
2023-01-22T12:46:25.414Z,11.95
2023-01-22T12:49:09.636Z,15.52
2023-01-22T12:51:55.236Z,6.70
2023-01-22T12:54:32.525Z,8.85
2023-01-22T12:57:25.093Z,10.85
2023-01-22T12:59:54.704Z,10.60
2023-01-22T13:02:39.767Z,10.90
2023-01-22T13:05:40.625Z,13.80
2023-01-22T13:08:21.243Z,8.75
2023-01-22T13:10:54.554Z,6.05
2023-01-22T13:13:33.420Z,11.68
2023-01-22T13:16:26.623Z,7.20
2023-01-22T13:18:55.931Z,7.50
2023-01-22T13:21:45.086Z,8.98
2023-01-22T13:24:14.826Z,6.85
2023-01-22T13:26:57.242Z,8.40
2023-01-22T13:29:38.174Z,5.60
2023-01-22T13:32:30.493Z,4.35
2023-01-22T13:35:12.137Z,7.65
2023-01-22T13:37:42.135Z,6.40
2023-01-22T13:40:24.616Z,5.53
2023-01-22T13:42:51.938Z,5.13
2023-01-22T13:45:38.297Z,5.10
2023-01-22T13:48:15.854Z,2.97
2023-01-22T13:51:06.478Z,4.63
2023-01-22T13:53:45.921Z,3.67
2023-01-22T13:56:18.884Z,3.35
2023-01-22T13:58:48.691Z,7.40
2023-01-22T14:01:30.402Z,2.47
2023-01-22T14:04:27.092Z,1.33
2023-01-22T14:07:29.932Z,5.72
2023-01-22T14:09:58.490Z,4.32
2023-01-22T14:12:35.166Z,1.67
